createdAt,value
2019-02-20T11:44:32.598Z,18.00
2019-02-20T11:48:35.644Z,18.20
2019-02-20T11:52:38.773Z,18.30
2019-02-20T11:56:41.898Z,18.50
2019-02-20T12:00:44.932Z,18.60
2019-02-20T12:04:47.968Z,18.10
2019-02-20T12:08:50.973Z,18.40
2019-02-20T12:12:54.675Z,18.10
2019-02-20T12:16:57.833Z,17.70
2019-02-20T12:21:00.865Z,17.60
2019-02-20T12:25:08.265Z,18.00
2019-02-20T12:29:11.392Z,18.10
2019-02-20T12:33:14.511Z,18.20
2019-02-20T12:37:17.531Z,18.10
2019-02-20T12:41:20.564Z,18.10
2019-02-20T12:45:24.017Z,17.30
2019-02-20T12:49:27.052Z,17.50
2019-02-20T12:53:30.060Z,17.60
2019-02-20T12:57:33.204Z,16.70
2019-02-20T13:01:36.216Z,16.50
2019-02-20T13:05:39.240Z,16.20
2019-02-20T13:09:42.251Z,16.10
2019-02-20T13:13:45.267Z,15.90
2019-02-20T13:17:48.277Z,15.90
2019-02-20T13:21:51.296Z,15.70
2019-02-20T13:25:54.317Z,16.20
2019-02-20T13:29:57.356Z,16.80
2019-02-20T13:34:00.572Z,17.00
2019-02-20T13:38:03.621Z,16.70
2019-02-20T13:42:06.640Z,16.30
2019-02-20T13:46:10.200Z,15.80
2019-02-20T13:50:13.389Z,15.70
2019-02-20T13:54:16.811Z,15.60
2019-02-20T13:58:19.901Z,15.50
2019-02-20T14:02:23.320Z,15.60
2019-02-20T14:06:26.406Z,15.30
2019-02-20T14:10:30.600Z,15.30
2019-02-20T14:14:33.625Z,14.80
2019-02-20T14:18:36.727Z,14.80
2019-02-20T14:22:39.787Z,14.70
2019-02-20T14:26:42.863Z,14.20
2019-02-20T14:30:46.029Z,14.20
2019-02-20T14:34:49.123Z,14.10
2019-02-20T14:38:52.137Z,14.10
2019-02-20T14:42:55.257Z,13.90
2019-02-20T14:46:59.270Z,13.80
2019-02-20T14:51:02.703Z,13.80
2019-02-20T14:55:07.588Z,13.70
2019-02-20T14:59:10.627Z,13.70
2019-02-20T15:03:13.749Z,13.80
2019-02-20T15:07:16.760Z,13.80
2019-02-20T15:11:19.793Z,13.80
2019-02-20T15:15:22.898Z,13.80
2019-02-20T15:19:25.984Z,13.70
2019-02-20T15:23:28.988Z,13.90
2019-02-20T15:27:31.985Z,13.80
2019-02-20T15:31:35.088Z,13.70
2019-02-20T15:35:38.504Z,13.40
2019-02-20T15:39:41.595Z,13.40
2019-02-20T15:43:45.025Z,13.30
2019-02-20T15:47:49.027Z,13.30
2019-02-20T15:51:52.418Z,13.30
2019-02-20T15:55:55.431Z,13.30
2019-02-20T15:59:58.432Z,13.20
2019-02-20T16:04:01.432Z,13.20
2019-02-20T16:08:04.440Z,13.20
2019-02-20T16:12:07.552Z,13.10
2019-02-20T16:16:10.588Z,13.10
2019-02-20T16:20:13.713Z,13.10
2019-02-20T16:24:16.824Z,12.80
2019-02-20T16:28:19.971Z,12.90
2019-02-20T16:32:23.081Z,12.80
2019-02-20T16:36:26.168Z,12.80
2019-02-20T16:40:29.195Z,12.80
2019-02-20T16:44:32.208Z,12.60
2019-02-20T16:48:36.145Z,12.60
2019-02-20T16:52:39.260Z,12.50
2019-02-20T16:56:42.275Z,12.40
2019-02-20T17:00:45.285Z,12.30
2019-02-20T17:04:48.332Z,12.00
2019-02-20T17:08:51.345Z,11.90
2019-02-20T17:12:54.352Z,11.70
2019-02-20T17:16:57.366Z,11.60
2019-02-20T17:21:00.525Z,11.50
2019-02-20T17:25:05.949Z,11.30
2019-02-20T17:29:08.951Z,11.30
2019-02-20T17:33:12.243Z,11.10
2019-02-20T17:37:15.337Z,10.90
2019-02-20T17:41:18.896Z,10.80
2019-02-20T17:45:22.146Z,10.60
2019-02-20T17:49:25.946Z,10.50
2019-02-20T17:53:28.959Z,10.30
2019-02-20T17:57:31.956Z,10.30
2019-02-20T18:01:34.966Z,10.30
2019-02-20T18:05:37.968Z,10.20
2019-02-20T18:09:40.978Z,10.20
2019-02-20T18:13:43.984Z,10.10
2019-02-20T18:17:47.001Z,10.10
2019-02-20T18:21:50.005Z,10.00
2019-02-20T18:25:53.012Z,9.90
2019-02-20T18:29:56.020Z,9.70
2019-02-20T18:33:59.028Z,9.70
2019-02-20T18:38:02.038Z,9.70
2019-02-20T18:42:05.040Z,9.60
2019-02-20T18:46:08.061Z,9.50
2019-02-20T18:50:13.325Z,9.40
2019-02-20T18:54:16.330Z,9.30
2019-02-20T18:58:19.321Z,9.30
2019-02-20T19:02:22.348Z,9.20
2019-02-20T19:06:25.468Z,9.00
2019-02-20T19:10:32.305Z,9.00
2019-02-20T19:14:48.036Z,8.90
2019-02-20T19:19:06.622Z,8.80
2019-02-20T19:23:41.915Z,8.70
2019-02-20T19:27:54.509Z,8.60
2019-02-20T19:32:01.320Z,8.50
2019-02-20T19:36:14.396Z,8.40
2019-02-20T19:40:33.482Z,8.40
2019-02-20T19:44:49.559Z,8.30
2019-02-20T19:49:14.920Z,8.30
2019-02-20T19:53:23.144Z,8.20
2019-02-20T19:57:33.045Z,8.10
2019-02-20T20:01:59.506Z,8.00
2019-02-20T20:06:06.355Z,7.90
2019-02-20T20:10:27.725Z,7.90
2019-02-20T20:14:41.940Z,7.90
2019-02-20T20:19:20.778Z,7.90
2019-02-20T20:24:01.189Z,7.80
2019-02-20T20:28:11.173Z,7.70
2019-02-20T20:32:39.518Z,7.70
2019-02-20T20:36:51.002Z,7.50
2019-02-20T20:40:57.964Z,7.50
2019-02-20T20:45:10.721Z,7.40
2019-02-20T20:49:46.512Z,7.40
2019-02-20T20:54:03.286Z,7.30
2019-02-20T20:58:18.848Z,7.30
2019-02-20T21:02:25.660Z,7.10
2019-02-20T21:06:35.342Z,7.00
2019-02-20T21:10:47.619Z,6.90
2019-02-20T21:15:11.294Z,7.00
2019-02-20T21:19:21.797Z,7.00
2019-02-20T21:23:44.235Z,7.10
2019-02-20T21:28:06.164Z,7.10
2019-02-20T21:32:21.724Z,7.10
2019-02-20T21:36:37.389Z,7.10
2019-02-20T21:40:47.239Z,7.10
2019-02-20T21:45:00.776Z,7.00
2019-02-20T21:49:17.075Z,7.00
2019-02-20T21:53:42.383Z,7.00
2019-02-20T21:57:58.486Z,6.90
2019-02-20T22:02:32.515Z,7.00
2019-02-20T22:07:00.854Z,6.90
2019-02-20T22:11:16.115Z,6.90
2019-02-20T22:15:28.964Z,6.80
2019-02-20T22:19:52.476Z,6.80
2019-02-20T22:23:59.717Z,6.80
2019-02-20T22:28:21.870Z,6.80
2019-02-20T22:32:40.406Z,6.70
2019-02-20T22:36:53.376Z,6.60
2019-02-20T22:41:05.908Z,6.60
2019-02-20T22:45:33.771Z,6.70
2019-02-20T22:49:46.637Z,6.70
2019-02-20T22:54:14.184Z,6.70
2019-02-20T22:58:24.219Z,6.70
2019-02-20T23:02:46.172Z,6.60
2019-02-20T23:07:02.120Z,6.50
2019-02-20T23:11:32.797Z,6.50
2019-02-20T23:15:35.805Z,6.50
2019-02-20T23:19:38.812Z,6.50
2019-02-20T23:23:41.814Z,6.40
2019-02-20T23:27:44.829Z,6.40
2019-02-20T23:31:47.856Z,6.40
2019-02-20T23:35:50.839Z,6.30
2019-02-20T23:39:53.854Z,6.30
2019-02-20T23:43:56.881Z,6.40
2019-02-20T23:47:59.896Z,6.40
2019-02-20T23:52:02.912Z,6.40
2019-02-20T23:56:05.919Z,6.40
